createdAt,value
2019-04-03T00:00:27.585Z,77.80
2019-04-03T00:05:31.307Z,77.80
2019-04-03T00:10:37.369Z,78.40
2019-04-03T00:15:40.570Z,78.60
2019-04-03T00:20:44.401Z,80.10
2019-04-03T00:25:52.802Z,81.50
2019-04-03T00:30:56.864Z,80.60
2019-04-03T00:36:00.743Z,80.70
2019-04-03T00:41:04.557Z,81.30
2019-04-03T00:46:08.335Z,81.60
2019-04-03T00:51:12.097Z,81.80
2019-04-03T00:56:16.943Z,82.40
2019-04-03T01:01:20.681Z,82.60
2019-04-03T01:06:24.470Z,83.40
2019-04-03T01:11:30.149Z,83.40
2019-04-03T01:16:34.066Z,84.30
2019-04-03T01:21:37.843Z,84.60
2019-04-03T01:26:41.670Z,85.00
2019-04-03T01:31:45.370Z,85.70
2019-04-03T01:36:49.211Z,86.60
2019-04-03T01:41:59.007Z,87.50
2019-04-03T01:47:02.989Z,87.70
2019-04-03T01:52:06.694Z,88.10
2019-04-03T01:57:10.463Z,88.40
2019-04-03T02:02:14.234Z,88.40
2019-04-03T02:07:17.958Z,87.70
2019-04-03T02:12:21.769Z,87.70
2019-04-03T02:17:25.495Z,88.40
2019-04-03T02:22:29.875Z,89.30
2019-04-03T02:27:33.886Z,90.00
2019-04-03T02:32:37.688Z,90.10
2019-04-03T02:37:41.392Z,90.20
2019-04-03T02:42:45.125Z,90.50
2019-04-03T02:47:48.909Z,90.50
2019-04-03T02:52:56.900Z,91.10
2019-04-03T02:57:58.543Z,90.80
2019-04-03T03:03:02.813Z,91.00
2019-04-03T03:08:09.432Z,91.00
2019-04-03T03:13:13.128Z,91.00
2019-04-03T03:18:17.721Z,91.00
2019-04-03T03:23:23.097Z,90.90
2019-04-03T03:28:28.371Z,90.80
2019-04-03T03:33:37.335Z,90.90
2019-04-03T03:38:40.125Z,90.90
2019-04-03T03:43:46.284Z,91.00
2019-04-03T03:48:50.610Z,91.00
2019-04-03T03:53:54.703Z,91.00
2019-04-03T03:58:58.949Z,91.20
2019-04-03T04:04:03.250Z,91.30
2019-04-03T04:09:08.397Z,91.40
2019-04-03T04:14:12.703Z,91.40
2019-04-03T04:19:16.786Z,91.70
2019-04-03T04:24:20.595Z,91.70
2019-04-03T04:29:30.658Z,91.90
2019-04-03T04:34:34.359Z,92.00
2019-04-03T04:39:38.095Z,92.20
2019-04-03T04:44:41.799Z,92.20
2019-04-03T04:49:45.604Z,92.00
2019-04-03T04:54:49.406Z,92.10
2019-04-03T04:59:53.190Z,92.20
2019-04-03T05:04:56.923Z,92.10
2019-04-03T05:10:00.668Z,92.10
2019-04-03T05:15:04.870Z,92.00
2019-04-03T05:20:08.942Z,92.10
2019-04-03T05:25:12.737Z,91.90
2019-04-03T05:30:29.351Z,91.70
2019-04-03T05:35:33.264Z,91.70
2019-04-03T05:40:37.775Z,91.50
2019-04-03T05:45:42.230Z,91.30
2019-04-03T05:50:46.439Z,91.00
2019-04-03T05:55:50.278Z,91.00
2019-04-03T06:01:04.473Z,91.00
2019-04-03T06:05:59.747Z,90.70
2019-04-03T06:11:05.799Z,90.80
2019-04-03T06:16:09.210Z,90.90
2019-04-03T06:21:14.934Z,90.60
2019-04-03T06:26:18.370Z,90.60
2019-04-03T06:31:22.362Z,90.70
2019-04-03T06:36:26.086Z,89.80
2019-04-03T06:41:29.829Z,89.40
2019-04-03T06:46:33.583Z,89.70
2019-04-03T06:51:37.334Z,88.70
2019-04-03T06:56:41.290Z,89.40
2019-04-03T07:01:45.180Z,88.20
2019-04-03T07:06:48.919Z,87.50
2019-04-03T07:11:52.655Z,84.00
2019-04-03T07:16:56.611Z,82.90
2019-04-03T07:22:00.615Z,81.00
2019-04-03T07:27:06.076Z,79.40
2019-04-03T07:32:09.934Z,79.00
2019-04-03T07:37:15.353Z,75.70
2019-04-03T07:42:19.103Z,74.80
2019-04-03T07:47:22.871Z,75.60
2019-04-03T07:52:26.893Z,73.80
2019-04-03T07:57:30.670Z,71.00
2019-04-03T08:02:35.475Z,66.20
2019-04-03T08:07:39.327Z,64.60
2019-04-03T08:12:43.379Z,60.40
2019-04-03T08:17:47.825Z,58.10
2019-04-03T08:22:52.739Z,56.00
2019-04-03T08:27:56.507Z,55.10
2019-04-03T08:33:00.207Z,56.70
2019-04-03T08:38:04.086Z,55.20
2019-04-03T08:43:07.880Z,54.30
2019-04-03T08:48:11.626Z,53.40
2019-04-03T08:53:15.651Z,54.90
2019-04-03T08:58:21.503Z,54.50
2019-04-03T09:03:25.053Z,55.10
2019-04-03T09:08:28.862Z,54.50
2019-04-03T09:13:32.878Z,53.50
2019-04-03T09:18:38.345Z,52.00
2019-04-03T09:23:42.196Z,50.90
2019-04-03T09:28:46.013Z,50.00
2019-04-03T09:33:49.751Z,51.00
2019-04-03T09:38:53.507Z,48.70
2019-04-03T09:43:57.310Z,49.10
2019-04-03T09:49:01.277Z,47.30
2019-04-03T09:54:05.363Z,48.70
2019-04-03T09:59:09.390Z,48.00
2019-04-03T10:04:13.347Z,47.70
2019-04-03T10:09:17.087Z,46.90
2019-04-03T10:14:20.834Z,47.10
2019-04-03T10:19:24.564Z,46.00
2019-04-03T10:24:30.433Z,47.50
2019-04-03T10:29:33.707Z,46.40
2019-04-03T10:34:37.881Z,45.60
2019-04-03T10:39:44.465Z,45.30
2019-04-03T10:44:47.914Z,44.80
2019-04-03T10:49:51.642Z,45.00
2019-04-03T10:54:56.836Z,45.70
2019-04-03T11:00:01.097Z,46.00
2019-04-03T11:05:06.235Z,43.30
2019-04-03T11:10:11.136Z,43.70
2019-04-03T11:15:15.803Z,44.30
2019-04-03T11:20:19.877Z,43.70
2019-04-03T11:25:23.751Z,43.40
2019-04-03T11:30:27.743Z,42.60
2019-04-03T11:35:31.650Z,44.50
2019-04-03T11:40:35.776Z,43.10
2019-04-03T11:45:39.753Z,43.70
2019-04-03T11:50:44.342Z,43.70
2019-04-03T11:55:48.733Z,43.20
2019-04-03T12:00:53.177Z,43.40
2019-04-03T12:05:56.967Z,43.50
2019-04-03T12:11:00.993Z,43.40
2019-04-03T12:16:05.039Z,44.50
2019-04-03T12:21:10.659Z,43.10
2019-04-03T12:26:14.409Z,42.70
2019-04-03T12:31:18.283Z,43.40
2019-04-03T12:36:22.394Z,43.20
2019-04-03T12:41:27.825Z,43.20
2019-04-03T12:46:40.726Z,42.50
2019-04-03T12:51:43.540Z,42.30
2019-04-03T12:56:47.310Z,42.80
2019-04-03T13:01:51.082Z,43.80
2019-04-03T13:06:54.851Z,43.30
2019-04-03T13:11:58.561Z,42.80
2019-04-03T13:17:02.594Z,42.70
2019-04-03T13:22:06.394Z,42.30
2019-04-03T13:27:10.298Z,42.70
2019-04-03T13:32:16.452Z,41.70
2019-04-03T13:37:22.084Z,41.40
2019-04-03T13:42:25.339Z,42.00
2019-04-03T13:47:29.092Z,42.00
2019-04-03T13:52:40.031Z,43.40
2019-04-03T13:57:38.705Z,43.00
2019-04-03T14:02:44.952Z,42.00
2019-04-03T14:07:53.775Z,43.60
2019-04-03T14:12:58.087Z,43.70
2019-04-03T14:18:02.301Z,43.00
2019-04-03T14:23:06.027Z,43.40
2019-04-03T14:28:09.752Z,44.50
2019-04-03T14:33:13.582Z,45.00
2019-04-03T14:38:17.767Z,45.60
2019-04-03T14:43:22.316Z,45.50
2019-04-03T14:48:27.557Z,45.30
2019-04-03T14:53:31.315Z,45.10
2019-04-03T14:58:35.069Z,44.50
2019-04-03T15:03:39.181Z,44.60
2019-04-03T15:08:42.921Z,44.70
2019-04-03T15:13:48.881Z,44.40
2019-04-03T15:18:52.459Z,45.20
2019-04-03T15:23:56.546Z,45.80
2019-04-03T15:29:02.173Z,45.30
2019-04-03T15:34:06.428Z,45.00
2019-04-03T15:39:16.422Z,45.90
2019-04-03T15:44:21.018Z,45.40
2019-04-03T15:49:27.059Z,46.70
2019-04-03T15:54:33.051Z,46.10
2019-04-03T15:59:36.900Z,46.90
2019-04-03T16:04:40.792Z,46.80
2019-04-03T16:09:44.704Z,46.70
2019-04-03T16:14:51.144Z,47.70
2019-04-03T16:19:54.382Z,48.00
2019-04-03T16:24:58.085Z,48.00
2019-04-03T16:30:01.817Z,48.70
2019-04-03T16:35:06.241Z,48.80
2019-04-03T16:40:11.204Z,49.20
2019-04-03T16:45:15.373Z,49.20
2019-04-03T16:50:19.941Z,48.50
2019-04-03T16:55:27.347Z,48.30
2019-04-03T17:00:32.531Z,48.50
2019-04-03T17:05:37.372Z,48.70
2019-04-03T17:10:42.434Z,49.80
2019-04-03T17:15:46.664Z,50.80
2019-04-03T17:20:51.082Z,51.90
2019-04-03T17:25:55.212Z,53.10
2019-04-03T17:30:59.055Z,54.60
2019-04-03T17:36:02.806Z,56.40
2019-04-03T17:41:07.033Z,57.40
2019-04-03T17:46:11.462Z,58.50
2019-04-03T17:51:15.400Z,59.50
2019-04-03T17:56:20.201Z,61.80
2019-04-03T18:01:24.130Z,65.20
2019-04-03T18:06:27.984Z,66.90
2019-04-03T18:11:31.767Z,68.60
2019-04-03T18:16:35.570Z,70.70
2019-04-03T18:21:39.496Z,72.30
2019-04-03T18:26:44.997Z,74.10
2019-04-03T18:31:48.825Z,74.80
2019-04-03T18:36:52.628Z,75.20
2019-04-03T18:41:56.335Z,75.50
2019-04-03T18:47:00.062Z,75.90
2019-04-03T18:52:04.231Z,76.50
2019-04-03T18:57:08.339Z,77.30
2019-04-03T19:02:12.195Z,78.10
2019-04-03T19:07:16.083Z,78.50
2019-04-03T19:12:19.786Z,78.10
2019-04-03T19:17:24.834Z,78.30
2019-04-03T19:22:31.220Z,80.70
2019-04-03T19:27:35.009Z,80.00
2019-04-03T19:32:38.752Z,80.40
2019-04-03T19:37:45.039Z,80.30
2019-04-03T19:42:48.943Z,79.70
2019-04-03T19:47:54.554Z,79.90
2019-04-03T19:52:58.298Z,79.70
2019-04-03T19:58:02.338Z,78.70
2019-04-03T20:03:06.071Z,77.50
2019-04-03T20:08:10.143Z,75.90
2019-04-03T20:13:13.892Z,74.10
2019-04-03T20:18:17.658Z,73.50
2019-04-03T20:23:21.433Z,73.70
2019-04-03T20:28:25.180Z,73.60
2019-04-03T20:33:29.198Z,72.90
2019-04-03T20:38:33.040Z,73.50
2019-04-03T20:43:36.887Z,73.40
2019-04-03T20:48:40.607Z,73.30
2019-04-03T20:53:45.639Z,73.80
2019-04-03T20:58:55.845Z,74.20
2019-04-03T21:03:55.507Z,74.70
2019-04-03T21:08:59.603Z,75.80
2019-04-03T21:14:05.588Z,76.60
2019-04-03T21:19:09.115Z,76.20
2019-04-03T21:24:12.827Z,76.40
2019-04-03T21:29:17.456Z,76.10
2019-04-03T21:34:21.239Z,76.20
2019-04-03T21:39:24.963Z,75.60
2019-04-03T21:44:29.997Z,75.00
2019-04-03T21:49:34.172Z,73.40
2019-04-03T21:54:37.907Z,72.90
2019-04-03T21:59:42.896Z,72.50
2019-04-03T22:04:47.367Z,72.60
2019-04-03T22:09:51.082Z,72.80
2019-04-03T22:14:54.793Z,73.00
2019-04-03T22:19:59.259Z,73.70
2019-04-03T22:25:03.207Z,74.60
2019-04-03T22:30:07.527Z,75.50
2019-04-03T22:35:12.300Z,76.20
2019-04-03T22:40:16.290Z,76.80
2019-04-03T22:45:20.602Z,77.40
2019-04-03T22:50:24.845Z,77.00
2019-04-03T22:55:28.717Z,77.40
2019-04-03T23:00:34.871Z,77.10
2019-04-03T23:05:38.614Z,77.30
2019-04-03T23:10:42.588Z,77.00
2019-04-03T23:15:46.287Z,76.60
2019-04-03T23:20:52.528Z,77.10
2019-04-03T23:25:55.628Z,76.60
2019-04-03T23:30:59.341Z,76.40
2019-04-03T23:36:03.124Z,76.40
2019-04-03T23:41:06.846Z,75.90
2019-04-03T23:46:10.598Z,76.60
2019-04-03T23:51:23.171Z,75.60
2019-04-03T23:56:19.753Z,75.30
